createdAt,value
2023-03-03T00:00:08.301Z,34.63
2023-03-03T00:02:40.972Z,38.67
2023-03-03T00:05:08.179Z,36.23
2023-03-03T00:07:34.801Z,26.80
2023-03-03T00:10:01.442Z,28.50
2023-03-03T00:12:31.684Z,31.00
2023-03-03T00:14:58.445Z,29.87
2023-03-03T00:17:27.786Z,28.67
2023-03-03T00:19:55.392Z,29.90
2023-03-03T00:22:36.502Z,30.53
2023-03-03T00:25:21.713Z,33.50
2023-03-03T00:27:48.444Z,32.40
2023-03-03T00:30:25.478Z,29.70
2023-03-03T00:32:53.288Z,28.07
2023-03-03T00:35:35.420Z,31.60
2023-03-03T00:38:12.807Z,29.97
2023-03-03T00:40:40.816Z,36.27
2023-03-03T00:43:25.417Z,30.70
2023-03-03T00:45:54.464Z,30.10
2023-03-03T00:48:22.996Z,29.80
2023-03-03T00:50:50.906Z,31.10
2023-03-03T00:53:19.299Z,25.97
2023-03-03T00:55:47.728Z,31.47
2023-03-03T00:58:15.388Z,27.97
2023-03-03T01:00:45.036Z,31.67
2023-03-03T01:03:18.127Z,32.47
2023-03-03T01:05:45.394Z,36.03
2023-03-03T01:08:12.872Z,27.53
2023-03-03T01:10:44.068Z,30.70
2023-03-03T01:13:11.463Z,29.97
2023-03-03T01:15:39.969Z,27.20
2023-03-03T01:18:08.116Z,26.40
2023-03-03T01:20:34.841Z,31.03
2023-03-03T01:23:01.483Z,28.80
2023-03-03T01:25:28.473Z,29.83
2023-03-03T01:27:55.911Z,33.57
2023-03-03T01:30:23.330Z,27.07
2023-03-03T01:32:50.011Z,34.67
2023-03-03T01:35:17.260Z,29.03
2023-03-03T01:37:44.048Z,28.17
2023-03-03T01:40:20.582Z,30.73
2023-03-03T01:42:47.521Z,28.17
2023-03-03T01:45:26.163Z,27.77
2023-03-03T01:48:00.646Z,33.63
2023-03-03T01:50:47.691Z,27.73
2023-03-03T01:53:19.736Z,23.67
2023-03-03T01:55:47.724Z,25.37
2023-03-03T01:58:26.184Z,23.30
2023-03-03T02:01:02.486Z,22.07
2023-03-03T02:03:30.610Z,23.57
2023-03-03T02:06:03.382Z,20.87
2023-03-03T02:08:42.893Z,21.83
2023-03-03T02:11:11.004Z,19.70
2023-03-03T02:13:37.808Z,17.33
2023-03-03T02:16:04.879Z,18.90
2023-03-03T02:18:31.848Z,19.83
2023-03-03T02:21:05.577Z,20.30
2023-03-03T02:23:44.920Z,21.10
2023-03-03T02:26:24.849Z,24.50
2023-03-03T02:28:56.721Z,24.63
2023-03-03T02:31:26.400Z,22.30
2023-03-03T02:33:55.288Z,17.87
2023-03-03T02:36:28.439Z,15.27
2023-03-03T02:39:07.313Z,15.47
2023-03-03T02:41:36.998Z,16.60
2023-03-03T02:44:09.443Z,14.77
2023-03-03T02:46:39.327Z,12.40
2023-03-03T02:49:08.237Z,18.27
2023-03-03T02:51:35.875Z,15.03
2023-03-03T02:54:02.837Z,13.57
2023-03-03T02:56:33.267Z,14.90
2023-03-03T02:59:00.180Z,14.70
2023-03-03T03:01:27.630Z,14.67
2023-03-03T03:03:54.711Z,13.20
2023-03-03T03:06:22.937Z,12.00
2023-03-03T03:08:49.813Z,14.03
2023-03-03T03:11:16.563Z,13.77
2023-03-03T03:13:43.479Z,13.87
2023-03-03T03:16:10.184Z,12.93
2023-03-03T03:18:36.828Z,13.17
2023-03-03T03:21:11.849Z,11.13
2023-03-03T03:23:40.984Z,14.27
2023-03-03T03:26:08.811Z,19.13
2023-03-03T03:28:36.391Z,14.60
2023-03-03T03:31:05.570Z,11.90
2023-03-03T03:33:34.403Z,12.23
2023-03-03T03:36:01.464Z,11.20
2023-03-03T03:38:29.677Z,14.07
2023-03-03T03:40:56.524Z,12.90
2023-03-03T03:43:23.268Z,13.10
2023-03-03T03:45:50.142Z,11.13
2023-03-03T03:48:19.556Z,15.53
2023-03-03T03:50:48.920Z,11.63
2023-03-03T03:53:16.652Z,12.07
2023-03-03T03:55:44.488Z,12.37
2023-03-03T03:58:17.324Z,14.63
2023-03-03T04:00:48.966Z,10.40
2023-03-03T04:03:16.942Z,9.93
2023-03-03T04:05:45.827Z,10.10
2023-03-03T04:08:13.468Z,11.80
2023-03-03T04:10:42.281Z,11.53
2023-03-03T04:13:09.321Z,10.60
2023-03-03T04:15:36.444Z,11.77
2023-03-03T04:18:04.090Z,13.13
2023-03-03T04:20:30.977Z,13.60
2023-03-03T04:22:58.249Z,11.40
2023-03-03T04:25:25.999Z,10.50
2023-03-03T04:27:54.310Z,15.07
2023-03-03T04:30:22.695Z,15.93
2023-03-03T04:32:53.229Z,13.40
2023-03-03T04:35:22.496Z,11.73
2023-03-03T04:37:49.201Z,14.10
2023-03-03T04:40:18.228Z,12.53
2023-03-03T04:42:47.468Z,12.43
2023-03-03T04:45:14.230Z,12.93
2023-03-03T04:47:41.879Z,13.80
2023-03-03T04:50:11.051Z,12.73
2023-03-03T04:52:38.023Z,13.80
2023-03-03T04:55:09.340Z,14.63
2023-03-03T04:57:38.958Z,12.63
2023-03-03T05:00:06.694Z,12.80
2023-03-03T05:02:33.906Z,19.60
2023-03-03T05:05:01.976Z,16.40
2023-03-03T05:07:29.911Z,19.13
2023-03-03T05:09:56.516Z,15.87
2023-03-03T05:12:23.181Z,15.87
2023-03-03T05:14:49.867Z,16.50
2023-03-03T05:17:16.503Z,14.37
2023-03-03T05:19:43.208Z,20.13
2023-03-03T05:22:10.394Z,16.13
2023-03-03T05:24:37.100Z,16.40
2023-03-03T05:27:03.799Z,19.60
2023-03-03T05:29:31.569Z,17.60
2023-03-03T05:31:58.529Z,15.83
2023-03-03T05:34:25.429Z,16.37
2023-03-03T05:36:52.121Z,18.80
2023-03-03T05:39:18.892Z,17.17
2023-03-03T05:41:45.578Z,18.43
2023-03-03T05:44:12.831Z,21.07
2023-03-03T05:46:39.788Z,16.43
2023-03-03T05:49:06.486Z,16.47
2023-03-03T05:51:33.154Z,19.13
2023-03-03T05:53:59.862Z,19.00
2023-03-03T05:56:26.420Z,25.33
2023-03-03T05:58:53.148Z,22.23
2023-03-03T06:01:19.798Z,25.17
2023-03-03T06:03:46.354Z,21.40
2023-03-03T06:06:14.164Z,28.20
2023-03-03T06:08:40.864Z,22.60
2023-03-03T06:11:07.491Z,19.67
2023-03-03T06:13:34.480Z,20.90
2023-03-03T06:16:01.105Z,23.20
2023-03-03T06:18:27.662Z,21.37
2023-03-03T06:20:55.015Z,25.93
2023-03-03T06:23:22.145Z,21.37
2023-03-03T06:25:48.802Z,23.67
2023-03-03T06:28:15.393Z,28.13
2023-03-03T06:30:42.060Z,36.90
2023-03-03T06:33:08.632Z,25.43
2023-03-03T06:35:35.307Z,29.27
2023-03-03T06:38:02.799Z,28.93
2023-03-03T06:40:29.382Z,26.43
2023-03-03T06:42:56.260Z,22.90
2023-03-03T06:45:22.842Z,21.53
2023-03-03T06:47:49.606Z,23.03
2023-03-03T06:50:20.234Z,20.70
2023-03-03T06:52:47.010Z,22.40
2023-03-03T06:55:21.575Z,33.37
2023-03-03T06:57:48.329Z,31.33
2023-03-03T07:00:23.194Z,30.53
2023-03-03T07:03:00.744Z,28.60
2023-03-03T07:05:28.982Z,34.10
2023-03-03T07:07:56.748Z,23.80
2023-03-03T07:10:28.686Z,19.63
2023-03-03T07:13:14.452Z,21.03
2023-03-03T07:15:41.040Z,25.00
2023-03-03T07:18:24.643Z,23.87
2023-03-03T07:20:51.474Z,23.17
2023-03-03T07:23:25.164Z,20.77
2023-03-03T07:25:52.569Z,25.77
2023-03-03T07:28:29.736Z,27.43
2023-03-03T07:30:58.190Z,23.00
2023-03-03T07:33:34.246Z,28.53
2023-03-03T07:36:02.870Z,25.27
2023-03-03T07:38:34.487Z,28.03
2023-03-03T07:41:03.793Z,21.97
2023-03-03T07:43:43.236Z,23.83
2023-03-03T07:46:09.842Z,27.30
2023-03-03T07:48:40.093Z,26.23
2023-03-03T07:51:18.998Z,27.63
2023-03-03T07:53:47.329Z,31.87
2023-03-03T07:56:26.798Z,22.77
2023-03-03T07:58:55.985Z,22.13
2023-03-03T08:01:39.692Z,26.13
2023-03-03T08:04:17.512Z,23.47
2023-03-03T08:06:55.753Z,35.03
2023-03-03T08:09:51.872Z,24.73
2023-03-03T08:12:33.782Z,32.50
2023-03-03T08:15:36.249Z,25.20
2023-03-03T08:18:15.420Z,29.97
2023-03-03T08:20:46.163Z,26.60
2023-03-03T08:23:14.598Z,30.60
2023-03-03T08:25:42.353Z,25.67
2023-03-03T08:28:10.424Z,28.33
2023-03-03T08:30:37.153Z,31.27
2023-03-03T08:33:04.416Z,29.33
2023-03-03T08:35:31.418Z,32.60
2023-03-03T08:37:58.444Z,24.87
2023-03-03T08:40:25.411Z,25.73
2023-03-03T08:42:52.131Z,31.07
2023-03-03T08:45:18.724Z,32.60
2023-03-03T08:47:45.533Z,27.83
2023-03-03T08:50:13.251Z,30.70
2023-03-03T08:52:40.374Z,32.50
2023-03-03T08:55:08.783Z,29.73
2023-03-03T08:57:35.781Z,33.47
2023-03-03T09:00:03.072Z,37.60
2023-03-03T09:02:30.162Z,33.77
2023-03-03T09:04:56.791Z,29.97
2023-03-03T09:07:23.478Z,37.73
2023-03-03T09:09:50.499Z,32.23
2023-03-03T09:12:22.624Z,27.57
2023-03-03T09:14:51.317Z,28.50
2023-03-03T09:17:33.869Z,25.00
2023-03-03T09:20:17.535Z,25.07
2023-03-03T09:22:45.056Z,28.73
2023-03-03T09:25:22.132Z,28.80
2023-03-03T09:27:48.867Z,28.17
2023-03-03T09:30:39.501Z,30.47
2023-03-03T09:33:29.294Z,26.97
2023-03-03T09:36:22.427Z,24.33
2023-03-03T09:38:49.177Z,27.07
2023-03-03T09:41:23.994Z,33.23
2023-03-03T09:44:02.519Z,26.93
2023-03-03T09:46:44.776Z,26.33
2023-03-03T09:49:47.939Z,30.87
2023-03-03T09:52:27.303Z,29.27
2023-03-03T09:55:15.738Z,32.03
2023-03-03T09:58:12.583Z,28.63
2023-03-03T10:01:22.501Z,29.60
2023-03-03T10:04:08.273Z,33.50
2023-03-03T10:06:48.319Z,31.40
2023-03-03T10:09:43.165Z,28.37
2023-03-03T10:12:30.959Z,32.40
2023-03-03T10:15:30.365Z,31.90
2023-03-03T10:18:19.724Z,28.50
2023-03-03T10:21:12.340Z,32.23
2023-03-03T10:24:12.783Z,34.27
2023-03-03T10:27:12.327Z,33.80
2023-03-03T10:30:04.629Z,29.47
2023-03-03T10:32:45.578Z,29.03
2023-03-03T10:35:22.539Z,33.53
2023-03-03T10:38:12.085Z,34.33
2023-03-03T10:40:57.086Z,33.37
2023-03-03T10:43:33.041Z,28.23
2023-03-03T10:46:28.013Z,30.93
2023-03-03T10:49:20.802Z,32.23
2023-03-03T10:51:50.443Z,31.03
2023-03-03T10:54:54.464Z,31.03
2023-03-03T10:57:27.157Z,28.20
2023-03-03T11:00:32.728Z,34.23
2023-03-03T11:03:36.603Z,30.23
2023-03-03T11:06:11.270Z,30.27
2023-03-03T11:09:14.078Z,32.37
2023-03-03T11:12:10.200Z,33.07
2023-03-03T11:14:47.863Z,29.37
2023-03-03T11:17:46.992Z,31.00
2023-03-03T11:20:51.192Z,33.50
2023-03-03T11:23:44.719Z,39.40
2023-03-03T11:26:13.992Z,31.30
2023-03-03T11:29:10.296Z,29.60
2023-03-03T11:31:48.236Z,33.13
2023-03-03T11:34:47.130Z,28.50
2023-03-03T11:37:19.048Z,35.63
2023-03-03T11:39:45.785Z,36.80
2023-03-03T11:42:18.235Z,33.83
2023-03-03T11:44:55.072Z,36.03
2023-03-03T11:47:41.995Z,71.50
2023-03-03T11:50:16.357Z,31.20
2023-03-03T11:52:55.780Z,32.27
2023-03-03T11:55:39.391Z,40.90
2023-03-03T11:58:20.380Z,48.37
2023-03-03T12:00:52.389Z,43.00
2023-03-03T12:03:25.093Z,35.27
2023-03-03T12:06:13.305Z,32.77
2023-03-03T12:08:58.271Z,30.70
2023-03-03T12:11:54.412Z,32.53
2023-03-03T12:14:42.589Z,32.10
2023-03-03T12:17:21.223Z,29.23
2023-03-03T12:20:18.052Z,30.13
2023-03-03T12:23:07.285Z,29.37
2023-03-03T12:25:42.949Z,32.27
2023-03-03T12:28:36.310Z,24.90
2023-03-03T12:31:32.222Z,31.97
2023-03-03T12:34:11.901Z,30.60
2023-03-03T12:37:05.267Z,28.37
2023-03-03T12:39:56.672Z,33.57
2023-03-03T12:42:38.629Z,27.60
2023-03-03T12:45:24.314Z,27.60
2023-03-03T12:48:00.292Z,27.43
2023-03-03T12:50:47.311Z,29.43
2023-03-03T12:53:37.914Z,30.27
2023-03-03T12:56:10.462Z,28.43
2023-03-03T12:59:14.491Z,31.57
2023-03-03T13:02:08.456Z,26.60
2023-03-03T13:04:38.522Z,30.23
2023-03-03T13:07:31.499Z,31.10
2023-03-03T13:10:17.069Z,28.90
2023-03-03T13:13:11.944Z,28.00
2023-03-03T13:15:58.394Z,27.57
2023-03-03T13:18:49.832Z,28.00
2023-03-03T13:21:22.764Z,31.37
2023-03-03T13:24:05.110Z,32.23
2023-03-03T13:26:37.624Z,63.63
2023-03-03T13:29:15.387Z,30.17
2023-03-03T13:32:14.577Z,31.47
2023-03-03T13:35:09.151Z,29.80
2023-03-03T13:37:43.460Z,33.77
2023-03-03T13:40:13.464Z,37.77
2023-03-03T13:42:46.337Z,53.67
2023-03-03T13:45:31.317Z,38.70
2023-03-03T13:48:28.543Z,40.83
2023-03-03T13:51:10.470Z,30.53
2023-03-03T13:53:45.429Z,29.37
2023-03-03T13:56:33.319Z,29.67
2023-03-03T13:59:18.602Z,31.37
2023-03-03T14:02:22.210Z,25.33
2023-03-03T14:04:54.566Z,28.80
2023-03-03T14:07:44.966Z,33.73
2023-03-03T14:10:31.507Z,32.70
2023-03-03T14:13:24.744Z,26.13
2023-03-03T14:15:57.708Z,35.70
2023-03-03T14:18:44.811Z,31.27
2023-03-03T14:21:18.975Z,25.90
2023-03-03T14:24:02.453Z,27.10
2023-03-03T14:26:29.281Z,27.33
2023-03-03T14:29:20.349Z,26.63
2023-03-03T14:31:47.763Z,24.53
2023-03-03T14:34:29.419Z,24.57
2023-03-03T14:37:23.016Z,27.17
2023-03-03T14:40:15.042Z,21.77
2023-03-03T14:42:53.770Z,24.47
2023-03-03T14:45:33.651Z,24.00
2023-03-03T14:48:11.608Z,25.40
2023-03-03T14:50:41.597Z,27.00
2023-03-03T14:53:19.988Z,23.97
2023-03-03T14:55:52.884Z,30.17
2023-03-03T14:58:26.847Z,24.77
2023-03-03T15:01:18.666Z,35.47
2023-03-03T15:03:49.244Z,27.97
2023-03-03T15:06:32.949Z,29.57
2023-03-03T15:09:20.672Z,30.40
2023-03-03T15:11:51.556Z,50.03
2023-03-03T15:14:24.631Z,25.00
2023-03-03T15:16:51.416Z,28.47
2023-03-03T15:19:37.107Z,18.20
2023-03-03T15:22:29.133Z,24.30
2023-03-03T15:25:10.959Z,23.40
2023-03-03T15:27:43.870Z,23.70
2023-03-03T15:30:15.502Z,22.47
2023-03-03T15:32:56.543Z,25.23
2023-03-03T15:35:52.992Z,23.10
2023-03-03T15:38:31.103Z,22.93
2023-03-03T15:41:19.236Z,23.27
2023-03-03T15:44:10.450Z,22.70
2023-03-03T15:46:44.123Z,21.07
2023-03-03T15:49:55.364Z,19.43
2023-03-03T15:52:45.384Z,18.67
2023-03-03T15:55:32.549Z,19.97
2023-03-03T15:58:23.879Z,19.37
2023-03-03T16:01:10.571Z,20.17
2023-03-03T16:03:46.443Z,22.03
2023-03-03T16:06:22.133Z,19.67
2023-03-03T16:09:10.012Z,30.37
2023-03-03T16:11:54.332Z,20.80
2023-03-03T16:14:36.350Z,29.23
2023-03-03T16:17:28.256Z,24.07
2023-03-03T16:20:10.191Z,21.90
2023-03-03T16:22:49.778Z,24.40
2023-03-03T16:25:36.818Z,22.80
2023-03-03T16:28:18.014Z,21.27
2023-03-03T16:30:54.955Z,17.00
2023-03-03T16:33:37.722Z,23.87
2023-03-03T16:36:28.545Z,22.27
2023-03-03T16:39:25.932Z,24.03
2023-03-03T16:42:08.582Z,23.53
2023-03-03T16:44:43.604Z,14.03
2023-03-03T16:47:24.061Z,17.70
2023-03-03T16:50:06.233Z,16.30
2023-03-03T16:52:40.756Z,15.60
2023-03-03T16:55:46.997Z,18.03
2023-03-03T16:58:31.717Z,16.63
2023-03-03T17:01:07.214Z,15.67
2023-03-03T17:03:46.194Z,18.13
2023-03-03T17:06:27.770Z,18.20
2023-03-03T17:09:32.076Z,22.47
2023-03-03T17:12:32.477Z,19.23
2023-03-03T17:15:14.918Z,19.67
2023-03-03T17:17:56.930Z,19.43
2023-03-03T17:20:32.365Z,22.07
2023-03-03T17:23:36.388Z,22.80
2023-03-03T17:26:23.430Z,21.43
2023-03-03T17:29:21.634Z,22.30
2023-03-03T17:32:27.276Z,19.47
2023-03-03T17:35:27.005Z,24.23
2023-03-03T17:38:05.678Z,24.50
2023-03-03T17:40:49.336Z,24.17
2023-03-03T17:43:39.753Z,19.70
2023-03-03T17:46:16.907Z,15.30
2023-03-03T17:49:06.741Z,16.50
2023-03-03T17:51:51.325Z,16.63
2023-03-03T17:54:32.957Z,16.97
2023-03-03T17:57:17.398Z,14.00
2023-03-03T17:59:58.730Z,13.87
2023-03-03T18:03:03.118Z,15.47
2023-03-03T18:06:00.107Z,11.67
2023-03-03T18:08:37.250Z,12.67
2023-03-03T18:11:29.301Z,13.83
2023-03-03T18:14:22.000Z,17.30
2023-03-03T18:17:10.104Z,17.27
2023-03-03T18:20:05.008Z,16.40
2023-03-03T18:22:41.095Z,17.27
2023-03-03T18:25:22.421Z,15.77
2023-03-03T18:28:01.123Z,14.10
2023-03-03T18:30:32.892Z,11.93
2023-03-03T18:33:07.033Z,14.17
2023-03-03T18:35:38.230Z,12.57
2023-03-03T18:38:16.916Z,13.27
2023-03-03T18:41:03.995Z,13.90
2023-03-03T18:43:45.469Z,11.83
2023-03-03T18:46:22.632Z,13.13
2023-03-03T18:48:53.332Z,16.43
2023-03-03T18:51:35.464Z,20.47
2023-03-03T18:54:16.172Z,17.80
2023-03-03T18:56:58.249Z,19.33
2023-03-03T18:59:31.141Z,14.47
2023-03-03T19:02:13.252Z,16.93
2023-03-03T19:05:06.509Z,30.77
2023-03-03T19:07:42.146Z,15.83
2023-03-03T19:10:21.368Z,17.70
2023-03-03T19:12:52.056Z,13.07
2023-03-03T19:15:31.197Z,17.27
2023-03-03T19:18:03.646Z,17.97
2023-03-03T19:20:40.946Z,15.00
2023-03-03T19:23:17.102Z,19.20
2023-03-03T19:25:44.199Z,19.70
2023-03-03T19:28:38.052Z,18.17
2023-03-03T19:31:21.669Z,15.87
2023-03-03T19:33:57.142Z,16.73
2023-03-03T19:36:39.694Z,14.93
2023-03-03T19:39:52.367Z,16.50
2023-03-03T19:42:39.970Z,13.73
2023-03-03T19:45:24.669Z,15.13
2023-03-03T19:48:01.185Z,17.43
2023-03-03T19:51:07.821Z,19.13
2023-03-03T19:53:43.337Z,12.73
2023-03-03T19:56:42.564Z,14.77
2023-03-03T19:59:31.177Z,16.27
2023-03-03T20:02:16.520Z,17.33
2023-03-03T20:04:59.638Z,17.83
2023-03-03T20:07:33.879Z,15.37
2023-03-03T20:10:15.783Z,11.67
2023-03-03T20:13:00.194Z,19.70
2023-03-03T20:15:36.684Z,18.30
2023-03-03T20:18:28.141Z,24.47
2023-03-03T20:21:28.230Z,19.47
2023-03-03T20:24:25.144Z,20.33
2023-03-03T20:27:18.518Z,15.33
2023-03-03T20:30:02.561Z,15.87
2023-03-03T20:32:44.470Z,19.20
2023-03-03T20:35:21.039Z,13.77
2023-03-03T20:37:54.504Z,15.87
2023-03-03T20:40:45.400Z,16.07
2023-03-03T20:43:38.324Z,28.93
2023-03-03T20:46:29.469Z,24.13
2023-03-03T20:49:14.627Z,14.97
2023-03-03T20:51:43.771Z,16.80
2023-03-03T20:54:22.554Z,14.13
2023-03-03T20:57:01.369Z,20.30
2023-03-03T20:59:44.621Z,15.57
2023-03-03T21:02:23.933Z,17.33
2023-03-03T21:05:08.079Z,18.20
2023-03-03T21:07:36.559Z,21.77
2023-03-03T21:10:36.260Z,18.70
2023-03-03T21:13:30.925Z,24.30
2023-03-03T21:16:06.128Z,19.33
2023-03-03T21:18:32.856Z,24.83
2023-03-03T21:20:59.581Z,22.27
2023-03-03T21:23:26.273Z,19.33
2023-03-03T21:25:55.245Z,23.30
2023-03-03T21:28:31.313Z,24.47
2023-03-03T21:31:17.188Z,20.03
2023-03-03T21:33:55.704Z,19.93
2023-03-03T21:36:45.031Z,22.80
2023-03-03T21:39:20.761Z,23.20
2023-03-03T21:41:55.475Z,34.03
2023-03-03T21:44:29.745Z,25.23
2023-03-03T21:46:58.593Z,25.47
2023-03-03T21:49:26.111Z,25.00
2023-03-03T21:51:53.239Z,27.27
2023-03-03T21:54:19.883Z,27.07
2023-03-03T21:56:48.007Z,30.43
2023-03-03T21:59:14.882Z,26.73
2023-03-03T22:01:41.807Z,26.97
2023-03-03T22:04:09.717Z,30.27
2023-03-03T22:06:39.926Z,29.07
2023-03-03T22:09:07.214Z,33.73
2023-03-03T22:11:34.191Z,31.03
2023-03-03T22:14:01.158Z,31.93
2023-03-03T22:16:28.051Z,35.23
2023-03-03T22:18:54.769Z,29.03
2023-03-03T22:21:21.912Z,38.30
2023-03-03T22:23:48.660Z,29.20
2023-03-03T22:26:15.571Z,29.17
2023-03-03T22:28:44.249Z,33.83
2023-03-03T22:31:11.209Z,35.97
2023-03-03T22:33:37.917Z,37.47
2023-03-03T22:36:11.883Z,34.10
2023-03-03T22:38:39.962Z,32.17
2023-03-03T22:41:07.662Z,36.30
2023-03-03T22:43:34.664Z,36.27
2023-03-03T22:46:01.551Z,37.33
2023-03-03T22:48:29.389Z,39.83
2023-03-03T22:50:56.680Z,38.93
2023-03-03T22:53:24.860Z,35.63
2023-03-03T22:55:52.184Z,43.93
2023-03-03T22:58:26.736Z,33.87
2023-03-03T23:00:54.157Z,36.73
2023-03-03T23:03:22.587Z,38.43
2023-03-03T23:05:51.654Z,34.87
2023-03-03T23:08:20.444Z,42.67
2023-03-03T23:10:48.521Z,41.67
2023-03-03T23:13:15.523Z,36.67
2023-03-03T23:15:42.716Z,36.63
2023-03-03T23:18:09.991Z,38.93
2023-03-03T23:20:37.205Z,38.80
2023-03-03T23:23:03.858Z,37.77
2023-03-03T23:25:30.582Z,36.53
2023-03-03T23:27:57.571Z,36.73
2023-03-03T23:30:24.327Z,39.50
2023-03-03T23:32:51.734Z,34.37
2023-03-03T23:35:19.106Z,37.70
2023-03-03T23:37:46.089Z,37.30
2023-03-03T23:40:15.160Z,39.63
2023-03-03T23:42:42.293Z,36.20
2023-03-03T23:45:10.537Z,41.33
2023-03-03T23:47:37.378Z,38.83
2023-03-03T23:50:04.827Z,36.27
2023-03-03T23:52:31.689Z,39.17
2023-03-03T23:54:58.454Z,37.73
2023-03-03T23:57:25.222Z,41.80
2023-03-03T23:59:51.858Z,37.23
